sensor_id;sensor_type;location;lat;lon;timestamp;P1;durP1;ratioP1;P2;durP2;ratioP2
76964;SDS011;65903;51.452;7.198;2023-08-08T00:00:41;4.57;;;3.00;;
76964;SDS011;65903;51.452;7.198;2023-08-08T00:01:43;4.75;;;2.50;;
76964;SDS011;65903;51.452;7.198;2023-08-08T00:02:44;5.80;;;2.47;;
76964;SDS011;65903;51.452;7.198;2023-08-08T00:03:44;3.05;;;2.20;;
76964;SDS011;65903;51.452;7.198;2023-08-08T00:04:45;6.47;;;2.42;;
76964;SDS011;65903;51.452;7.198;2023-08-08T00:05:45;3.65;;;2.30;;
76964;SDS011;65903;51.452;7.198;2023-08-08T00:06:46;4.50;;;2.42;;
76964;SDS011;65903;51.452;7.198;2023-08-08T00:07:47;5.15;;;2.50;;
76964;SDS011;65903;51.452;7.198;2023-08-08T00:08:48;3.33;;;2.38;;
76964;SDS011;65903;51.452;7.198;2023-08-08T00:09:50;5.28;;;2.65;;
76964;SDS011;65903;51.452;7.198;2023-08-08T00:10:51;3.30;;;2.80;;
76964;SDS011;65903;51.452;7.198;2023-08-08T00:11:52;6.22;;;2.42;;
76964;SDS011;65903;51.452;7.198;2023-08-08T00:12:53;3.22;;;2.30;;
76964;SDS011;65903;51.452;7.198;2023-08-08T00:13:55;6.40;;;2.45;;
76964;SDS011;65903;51.452;7.198;2023-08-08T00:14:56;3.42;;;2.15;;
76964;SDS011;65903;51.452;7.198;2023-08-08T00:15:58;3.10;;;2.10;;
76964;SDS011;65903;51.452;7.198;2023-08-08T00:16:59;3.80;;;2.38;;
76964;SDS011;65903;51.452;7.198;2023-08-08T00:18:00;4.03;;;2.30;;
76964;SDS011;65903;51.452;7.198;2023-08-08T00:19:01;2.97;;;2.17;;
76964;SDS011;65903;51.452;7.198;2023-08-08T00:20:04;4.88;;;3.35;;
76964;SDS011;65903;51.452;7.198;2023-08-08T00:21:05;6.88;;;2.80;;
76964;SDS011;65903;51.452;7.198;2023-08-08T00:22:06;3.17;;;2.40;;
76964;SDS011;65903;51.452;7.198;2023-08-08T00:23:08;4.47;;;2.28;;
76964;SDS011;65903;51.452;7.198;2023-08-08T00:24:09;4.60;;;2.80;;
76964;SDS011;65903;51.452;7.198;2023-08-08T00:25:11;2.55;;;1.90;;
76964;SDS011;65903;51.452;7.198;2023-08-08T00:26:12;4.15;;;2.33;;
76964;SDS011;65903;51.452;7.198;2023-08-08T00:27:13;4.95;;;2.80;;
76964;SDS011;65903;51.452;7.198;2023-08-08T00:28:15;3.58;;;2.40;;
76964;SDS011;65903;51.452;7.198;2023-08-08T00:29:16;5.55;;;2.88;;
76964;SDS011;65903;51.452;7.198;2023-08-08T00:30:18;5.20;;;2.22;;
76964;SDS011;65903;51.452;7.198;2023-08-08T00:31:19;4.72;;;2.42;;
76964;SDS011;65903;51.452;7.198;2023-08-08T00:32:20;5.63;;;2.30;;
76964;SDS011;65903;51.452;7.198;2023-08-08T00:33:21;4.15;;;2.53;;
76964;SDS011;65903;51.452;7.198;2023-08-08T00:34:23;3.90;;;2.30;;
76964;SDS011;65903;51.452;7.198;2023-08-08T00:35:24;4.55;;;2.90;;
76964;SDS011;65903;51.452;7.198;2023-08-08T00:36:26;4.72;;;2.45;;
76964;SDS011;65903;51.452;7.198;2023-08-08T00:37:27;5.07;;;2.30;;
76964;SDS011;65903;51.452;7.198;2023-08-08T00:38:28;5.20;;;2.70;;
76964;SDS011;65903;51.452;7.198;2023-08-08T00:39:29;4.25;;;2.53;;
76964;SDS011;65903;51.452;7.198;2023-08-08T00:40:30;4.38;;;2.60;;
76964;SDS011;65903;51.452;7.198;2023-08-08T00:41:31;6.28;;;3.38;;
76964;SDS011;65903;51.452;7.198;2023-08-08T00:42:32;3.95;;;2.80;;
76964;SDS011;65903;51.452;7.198;2023-08-08T00:43:33;5.72;;;2.72;;
76964;SDS011;65903;51.452;7.198;2023-08-08T00:44:35;3.40;;;2.50;;
76964;SDS011;65903;51.452;7.198;2023-08-08T00:45:38;3.33;;;2.15;;
76964;SDS011;65903;51.452;7.198;2023-08-08T00:46:41;4.07;;;2.50;;
76964;SDS011;65903;51.452;7.198;2023-08-08T00:47:42;5.40;;;2.28;;
76964;SDS011;65903;51.452;7.198;2023-08-08T00:48:43;4.97;;;2.70;;
76964;SDS011;65903;51.452;7.198;2023-08-08T00:49:45;5.50;;;2.70;;
76964;SDS011;65903;51.452;7.198;2023-08-08T00:50:47;3.97;;;2.20;;
76964;SDS011;65903;51.452;7.198;2023-08-08T00:51:49;5.53;;;2.65;;
76964;SDS011;65903;51.452;7.198;2023-08-08T00:52:50;3.33;;;2.10;;
76964;SDS011;65903;51.452;7.198;2023-08-08T00:53:51;3.42;;;2.10;;
76964;SDS011;65903;51.452;7.198;2023-08-08T00:54:52;4.40;;;2.00;;
76964;SDS011;65903;51.452;7.198;2023-08-08T00:55:54;3.42;;;2.30;;
76964;SDS011;65903;51.452;7.198;2023-08-08T00:56:55;5.28;;;2.08;;
76964;SDS011;65903;51.452;7.198;2023-08-08T00:57:56;3.72;;;2.20;;
76964;SDS011;65903;51.452;7.198;2023-08-08T00:58:58;4.45;;;2.28;;
76964;SDS011;65903;51.452;7.198;2023-08-08T00:59:58;4.38;;;2.25;;
76964;SDS011;65903;51.452;7.198;2023-08-08T01:01:00;3.47;;;2.03;;
76964;SDS011;65903;51.452;7.198;2023-08-08T01:02:01;4.43;;;2.55;;
76964;SDS011;65903;51.452;7.198;2023-08-08T01:03:02;3.00;;;2.22;;
76964;SDS011;65903;51.452;7.198;2023-08-08T01:04:04;3.47;;;1.95;;
76964;SDS011;65903;51.452;7.198;2023-08-08T01:05:07;4.60;;;2.20;;
76964;SDS011;65903;51.452;7.198;2023-08-08T01:10:24;4.50;;;2.35;;
76964;SDS011;65903;51.452;7.198;2023-08-08T01:11:28;3.72;;;2.50;;
76964;SDS011;65903;51.452;7.198;2023-08-08T01:12:30;4.47;;;2.35;;
76964;SDS011;65903;51.452;7.198;2023-08-08T01:13:33;3.42;;;2.47;;
76964;SDS011;65903;51.452;7.198;2023-08-08T01:14:34;4.57;;;2.60;;
76964;SDS011;65903;51.452;7.198;2023-08-08T01:15:36;2.88;;;2.17;;
76964;SDS011;65903;51.452;7.198;2023-08-08T01:16:38;3.67;;;2.42;;
76964;SDS011;65903;51.452;7.198;2023-08-08T01:17:39;3.83;;;2.50;;
76964;SDS011;65903;51.452;7.198;2023-08-08T01:18:42;4.03;;;2.72;;
76964;SDS011;65903;51.452;7.198;2023-08-08T01:19:45;4.07;;;2.65;;
76964;SDS011;65903;51.452;7.198;2023-08-08T01:20:47;3.90;;;2.60;;
76964;SDS011;65903;51.452;7.198;2023-08-08T01:21:48;3.60;;;2.80;;
76964;SDS011;65903;51.452;7.198;2023-08-08T01:22:59;4.00;;;2.50;;
76964;SDS011;65903;51.452;7.198;2023-08-08T01:25:22;4.05;;;2.50;;
76964;SDS011;65903;51.452;7.198;2023-08-08T01:26:24;3.88;;;2.45;;
76964;SDS011;65903;51.452;7.198;2023-08-08T01:27:26;3.50;;;2.00;;
76964;SDS011;65903;51.452;7.198;2023-08-08T01:28:27;5.05;;;2.53;;
76964;SDS011;65903;51.452;7.198;2023-08-08T01:29:28;3.45;;;2.22;;
76964;SDS011;65903;51.452;7.198;2023-08-08T01:30:30;3.80;;;2.45;;
76964;SDS011;65903;51.452;7.198;2023-08-08T01:31:31;4.72;;;2.40;;
76964;SDS011;65903;51.452;7.198;2023-08-08T01:32:33;4.30;;;2.47;;
76964;SDS011;65903;51.452;7.198;2023-08-08T01:33:35;5.60;;;2.60;;
76964;SDS011;65903;51.452;7.198;2023-08-08T01:34:36;5.55;;;2.40;;
76964;SDS011;65903;51.452;7.198;2023-08-08T01:35:40;3.53;;;2.33;;
76964;SDS011;65903;51.452;7.198;2023-08-08T01:37:07;3.25;;;2.70;;
76964;SDS011;65903;51.452;7.198;2023-08-08T01:38:13;4.72;;;2.72;;
76964;SDS011;65903;51.452;7.198;2023-08-08T01:39:20;5.43;;;2.22;;
76964;SDS011;65903;51.452;7.198;2023-08-08T01:40:25;3.55;;;2.92;;
76964;SDS011;65903;51.452;7.198;2023-08-08T01:41:26;5.05;;;2.30;;
76964;SDS011;65903;51.452;7.198;2023-08-08T01:42:28;5.50;;;3.10;;
76964;SDS011;65903;51.452;7.198;2023-08-08T01:43:30;5.80;;;2.95;;
76964;SDS011;65903;51.452;7.198;2023-08-08T01:44:31;3.38;;;2.38;;
76964;SDS011;65903;51.452;7.198;2023-08-08T01:45:32;3.50;;;2.30;;
76964;SDS011;65903;51.452;7.198;2023-08-08T01:46:33;5.53;;;2.60;;
76964;SDS011;65903;51.452;7.198;2023-08-08T01:47:36;4.65;;;3.00;;
76964;SDS011;65903;51.452;7.198;2023-08-08T01:48:37;4.13;;;2.70;;
76964;SDS011;65903;51.452;7.198;2023-08-08T01:49:38;4.00;;;2.70;;
76964;SDS011;65903;51.452;7.198;2023-08-08T01:50:39;3.42;;;2.30;;
76964;SDS011;65903;51.452;7.198;2023-08-08T01:51:40;5.63;;;2.58;;
76964;SDS011;65903;51.452;7.198;2023-08-08T01:52:41;4.22;;;2.40;;
76964;SDS011;65903;51.452;7.198;2023-08-08T01:53:42;5.03;;;2.58;;
76964;SDS011;65903;51.452;7.198;2023-08-08T01:54:42;5.72;;;2.55;;
76964;SDS011;65903;51.452;7.198;2023-08-08T01:55:43;6.00;;;2.67;;
76964;SDS011;65903;51.452;7.198;2023-08-08T01:56:44;3.63;;;2.60;;
76964;SDS011;65903;51.452;7.198;2023-08-08T01:57:45;4.82;;;2.33;;
76964;SDS011;65903;51.452;7.198;2023-08-08T01:58:46;4.50;;;2.75;;
76964;SDS011;65903;51.452;7.198;2023-08-08T01:59:48;4.35;;;2.75;;
76964;SDS011;65903;51.452;7.198;2023-08-08T02:00:49;3.90;;;2.28;;
76964;SDS011;65903;51.452;7.198;2023-08-08T02:01:50;4.88;;;2.85;;
76964;SDS011;65903;51.452;7.198;2023-08-08T02:02:51;4.30;;;2.72;;
76964;SDS011;65903;51.452;7.198;2023-08-08T02:03:52;4.90;;;2.55;;
76964;SDS011;65903;51.452;7.198;2023-08-08T02:04:53;4.15;;;2.42;;
76964;SDS011;65903;51.452;7.198;2023-08-08T02:05:54;6.22;;;2.90;;
76964;SDS011;65903;51.452;7.198;2023-08-08T02:06:54;3.10;;;2.20;;
76964;SDS011;65903;51.452;7.198;2023-08-08T02:07:55;6.93;;;2.50;;
76964;SDS011;65903;51.452;7.198;2023-08-08T02:08:56;4.55;;;2.75;;
76964;SDS011;65903;51.452;7.198;2023-08-08T02:09:58;5.95;;;2.90;;
76964;SDS011;65903;51.452;7.198;2023-08-08T02:10:59;3.83;;;2.53;;
76964;SDS011;65903;51.452;7.198;2023-08-08T02:12:00;3.95;;;2.75;;
76964;SDS011;65903;51.452;7.198;2023-08-08T02:13:01;4.03;;;2.63;;
76964;SDS011;65903;51.452;7.198;2023-08-08T02:14:03;4.13;;;2.40;;
76964;SDS011;65903;51.452;7.198;2023-08-08T02:15:04;4.07;;;2.60;;
76964;SDS011;65903;51.452;7.198;2023-08-08T02:16:07;4.53;;;2.70;;
76964;SDS011;65903;51.452;7.198;2023-08-08T02:17:08;4.90;;;3.10;;
76964;SDS011;65903;51.452;7.198;2023-08-08T02:18:09;6.72;;;2.60;;
76964;SDS011;65903;51.452;7.198;2023-08-08T02:19:11;5.15;;;2.20;;
76964;SDS011;65903;51.452;7.198;2023-08-08T02:20:12;3.92;;;2.83;;
76964;SDS011;65903;51.452;7.198;2023-08-08T02:21:13;3.58;;;2.40;;
76964;SDS011;65903;51.452;7.198;2023-08-08T02:22:16;4.82;;;2.80;;
76964;SDS011;65903;51.452;7.198;2023-08-08T02:23:18;4.70;;;2.55;;
76964;SDS011;65903;51.452;7.198;2023-08-08T02:24:19;3.85;;;3.17;;
76964;SDS011;65903;51.452;7.198;2023-08-08T02:25:20;5.22;;;2.65;;
76964;SDS011;65903;51.452;7.198;2023-08-08T02:26:21;3.67;;;2.40;;
76964;SDS011;65903;51.452;7.198;2023-08-08T02:27:22;3.92;;;2.45;;
76964;SDS011;65903;51.452;7.198;2023-08-08T02:28:23;7.00;;;2.63;;
76964;SDS011;65903;51.452;7.198;2023-08-08T02:29:24;5.05;;;2.70;;
76964;SDS011;65903;51.452;7.198;2023-08-08T02:30:26;5.90;;;2.67;;
76964;SDS011;65903;51.452;7.198;2023-08-08T02:31:27;4.18;;;3.13;;
76964;SDS011;65903;51.452;7.198;2023-08-08T02:32:28;6.03;;;3.25;;
76964;SDS011;65903;51.452;7.198;2023-08-08T02:33:29;4.38;;;2.70;;
76964;SDS011;65903;51.452;7.198;2023-08-08T02:34:30;6.53;;;2.55;;
76964;SDS011;65903;51.452;7.198;2023-08-08T02:35:30;4.40;;;2.65;;
76964;SDS011;65903;51.452;7.198;2023-08-08T02:36:31;4.07;;;2.90;;
76964;SDS011;65903;51.452;7.198;2023-08-08T02:37:33;5.82;;;2.60;;
76964;SDS011;65903;51.452;7.198;2023-08-08T02:38:34;5.22;;;2.70;;
76964;SDS011;65903;51.452;7.198;2023-08-08T02:39:36;4.18;;;2.25;;
76964;SDS011;65903;51.452;7.198;2023-08-08T02:40:37;5.32;;;2.85;;
76964;SDS011;65903;51.452;7.198;2023-08-08T02:41:39;8.10;;;3.00;;
76964;SDS011;65903;51.452;7.198;2023-08-08T02:42:39;4.25;;;2.63;;
76964;SDS011;65903;51.452;7.198;2023-08-08T02:43:40;5.13;;;2.60;;
76964;SDS011;65903;51.452;7.198;2023-08-08T02:44:41;5.57;;;2.83;;
76964;SDS011;65903;51.452;7.198;2023-08-08T02:45:42;5.72;;;2.80;;
76964;SDS011;65903;51.452;7.198;2023-08-08T02:46:43;3.88;;;2.50;;
76964;SDS011;65903;51.452;7.198;2023-08-08T02:47:44;4.00;;;2.72;;
76964;SDS011;65903;51.452;7.198;2023-08-08T02:48:45;4.35;;;2.83;;
76964;SDS011;65903;51.452;7.198;2023-08-08T02:49:46;4.03;;;2.75;;
76964;SDS011;65903;51.452;7.198;2023-08-08T02:50:48;4.20;;;3.08;;
76964;SDS011;65903;51.452;7.198;2023-08-08T02:51:49;6.25;;;2.83;;
76964;SDS011;65903;51.452;7.198;2023-08-08T02:52:50;4.95;;;2.70;;
76964;SDS011;65903;51.452;7.198;2023-08-08T02:53:51;6.45;;;2.60;;
76964;SDS011;65903;51.452;7.198;2023-08-08T02:54:52;4.57;;;2.83;;
76964;SDS011;65903;51.452;7.198;2023-08-08T02:55:53;6.30;;;3.20;;
76964;SDS011;65903;51.452;7.198;2023-08-08T02:56:54;5.53;;;3.45;;
76964;SDS011;65903;51.452;7.198;2023-08-08T02:57:55;4.65;;;3.28;;
76964;SDS011;65903;51.452;7.198;2023-08-08T02:58:57;4.70;;;2.50;;
76964;SDS011;65903;51.452;7.198;2023-08-08T02:59:59;3.75;;;2.75;;
76964;SDS011;65903;51.452;7.198;2023-08-08T03:01:00;6.38;;;2.60;;
76964;SDS011;65903;51.452;7.198;2023-08-08T03:02:01;3.63;;;3.05;;
76964;SDS011;65903;51.452;7.198;2023-08-08T03:03:02;4.38;;;2.50;;
76964;SDS011;65903;51.452;7.198;2023-08-08T03:04:03;6.13;;;3.05;;
76964;SDS011;65903;51.452;7.198;2023-08-08T03:05:05;4.47;;;2.75;;
76964;SDS011;65903;51.452;7.198;2023-08-08T03:06:06;4.30;;;2.60;;
76964;SDS011;65903;51.452;7.198;2023-08-08T03:07:07;6.10;;;3.00;;
76964;SDS011;65903;51.452;7.198;2023-08-08T03:08:09;4.22;;;2.58;;
76964;SDS011;65903;51.452;7.198;2023-08-08T03:09:10;5.93;;;2.50;;
76964;SDS011;65903;51.452;7.198;2023-08-08T03:10:12;6.00;;;3.00;;
76964;SDS011;65903;51.452;7.198;2023-08-08T03:11:13;4.72;;;2.60;;
76964;SDS011;65903;51.452;7.198;2023-08-08T03:12:14;4.45;;;2.60;;
76964;SDS011;65903;51.452;7.198;2023-08-08T03:13:15;4.40;;;3.25;;
76964;SDS011;65903;51.452;7.198;2023-08-08T03:14:16;6.68;;;2.60;;
76964;SDS011;65903;51.452;7.198;2023-08-08T03:15:17;6.65;;;2.80;;
76964;SDS011;65903;51.452;7.198;2023-08-08T03:16:18;5.30;;;3.00;;
76964;SDS011;65903;51.452;7.198;2023-08-08T03:17:18;5.90;;;3.05;;
76964;SDS011;65903;51.452;7.198;2023-08-08T03:18:19;5.32;;;2.92;;
76964;SDS011;65903;51.452;7.198;2023-08-08T03:19:21;6.50;;;3.03;;
76964;SDS011;65903;51.452;7.198;2023-08-08T03:20:22;4.05;;;2.70;;
76964;SDS011;65903;51.452;7.198;2023-08-08T03:21:24;6.95;;;3.20;;
76964;SDS011;65903;51.452;7.198;2023-08-08T03:22:25;5.70;;;3.00;;
76964;SDS011;65903;51.452;7.198;2023-08-08T03:23:26;4.95;;;2.60;;
76964;SDS011;65903;51.452;7.198;2023-08-08T03:24:27;4.93;;;2.53;;
76964;SDS011;65903;51.452;7.198;2023-08-08T03:25:27;5.18;;;2.97;;
76964;SDS011;65903;51.452;7.198;2023-08-08T03:26:29;5.40;;;2.42;;
76964;SDS011;65903;51.452;7.198;2023-08-08T03:27:30;5.95;;;3.03;;
76964;SDS011;65903;51.452;7.198;2023-08-08T03:28:31;5.85;;;2.60;;
76964;SDS011;65903;51.452;7.198;2023-08-08T03:29:32;6.30;;;3.22;;
76964;SDS011;65903;51.452;7.198;2023-08-08T03:30:33;5.60;;;3.53;;
76964;SDS011;65903;51.452;7.198;2023-08-08T03:31:37;4.53;;;2.83;;
76964;SDS011;65903;51.452;7.198;2023-08-08T03:32:38;5.28;;;2.63;;
76964;SDS011;65903;51.452;7.198;2023-08-08T03:33:39;5.50;;;3.30;;
76964;SDS011;65903;51.452;7.198;2023-08-08T03:34:42;5.50;;;2.83;;
76964;SDS011;65903;51.452;7.198;2023-08-08T03:35:44;5.75;;;3.20;;
76964;SDS011;65903;51.452;7.198;2023-08-08T03:36:45;6.80;;;3.30;;
76964;SDS011;65903;51.452;7.198;2023-08-08T03:37:46;6.25;;;2.95;;
76964;SDS011;65903;51.452;7.198;2023-08-08T03:38:47;5.57;;;2.78;;
76964;SDS011;65903;51.452;7.198;2023-08-08T03:39:49;5.60;;;3.05;;
76964;SDS011;65903;51.452;7.198;2023-08-08T03:40:50;5.68;;;2.75;;
76964;SDS011;65903;51.452;7.198;2023-08-08T03:41:51;5.07;;;2.67;;
76964;SDS011;65903;51.452;7.198;2023-08-08T03:42:53;4.88;;;3.03;;
76964;SDS011;65903;51.452;7.198;2023-08-08T03:43:54;7.43;;;3.55;;
76964;SDS011;65903;51.452;7.198;2023-08-08T03:44:56;5.93;;;3.13;;
76964;SDS011;65903;51.452;7.198;2023-08-08T03:45:57;6.82;;;3.40;;
76964;SDS011;65903;51.452;7.198;2023-08-08T03:47:00;5.30;;;3.10;;
76964;SDS011;65903;51.452;7.198;2023-08-08T03:48:02;7.05;;;3.00;;
76964;SDS011;65903;51.452;7.198;2023-08-08T03:49:03;5.05;;;3.10;;
76964;SDS011;65903;51.452;7.198;2023-08-08T03:50:06;5.82;;;3.28;;
76964;SDS011;65903;51.452;7.198;2023-08-08T03:51:10;6.13;;;3.15;;
76964;SDS011;65903;51.452;7.198;2023-08-08T03:52:11;6.85;;;2.92;;
76964;SDS011;65903;51.452;7.198;2023-08-08T03:53:12;7.07;;;3.30;;
76964;SDS011;65903;51.452;7.198;2023-08-08T03:54:13;6.05;;;3.00;;
76964;SDS011;65903;51.452;7.198;2023-08-08T03:55:14;6.10;;;4.03;;
76964;SDS011;65903;51.452;7.198;2023-08-08T03:56:15;6.07;;;3.25;;
76964;SDS011;65903;51.452;7.198;2023-08-08T03:57:16;8.27;;;3.80;;
76964;SDS011;65903;51.452;7.198;2023-08-08T03:58:17;7.18;;;3.88;;
76964;SDS011;65903;51.452;7.198;2023-08-08T03:59:18;9.45;;;4.13;;
76964;SDS011;65903;51.452;7.198;2023-08-08T04:00:19;9.40;;;3.97;;
76964;SDS011;65903;51.452;7.198;2023-08-08T04:01:22;4.95;;;3.30;;
76964;SDS011;65903;51.452;7.198;2023-08-08T04:02:24;5.90;;;3.95;;
76964;SDS011;65903;51.452;7.198;2023-08-08T04:03:25;5.07;;;3.15;;
76964;SDS011;65903;51.452;7.198;2023-08-08T04:04:26;7.07;;;3.75;;
76964;SDS011;65903;51.452;7.198;2023-08-08T04:05:27;7.53;;;3.22;;
76964;SDS011;65903;51.452;7.198;2023-08-08T04:06:28;7.95;;;3.70;;
76964;SDS011;65903;51.452;7.198;2023-08-08T04:07:30;6.13;;;3.63;;
76964;SDS011;65903;51.452;7.198;2023-08-08T04:08:32;5.07;;;3.70;;
76964;SDS011;65903;51.452;7.198;2023-08-08T04:09:33;7.07;;;3.55;;
76964;SDS011;65903;51.452;7.198;2023-08-08T04:10:34;7.38;;;3.30;;
76964;SDS011;65903;51.452;7.198;2023-08-08T04:11:35;10.02;;;4.35;;
76964;SDS011;65903;51.452;7.198;2023-08-08T04:12:36;11.20;;;3.40;;
76964;SDS011;65903;51.452;7.198;2023-08-08T04:13:37;5.80;;;3.90;;
76964;SDS011;65903;51.452;7.198;2023-08-08T04:14:37;8.70;;;3.50;;
76964;SDS011;65903;51.452;7.198;2023-08-08T04:15:38;5.10;;;3.70;;
76964;SDS011;65903;51.452;7.198;2023-08-08T04:16:39;5.95;;;3.38;;
76964;SDS011;65903;51.452;7.198;2023-08-08T04:17:41;6.10;;;3.75;;
76964;SDS011;65903;51.452;7.198;2023-08-08T04:18:41;6.30;;;3.42;;
76964;SDS011;65903;51.452;7.198;2023-08-08T04:19:43;7.15;;;3.65;;
76964;SDS011;65903;51.452;7.198;2023-08-08T04:20:45;8.23;;;3.28;;
76964;SDS011;65903;51.452;7.198;2023-08-08T04:21:46;5.88;;;3.70;;
76964;SDS011;65903;51.452;7.198;2023-08-08T04:22:48;5.95;;;3.17;;
76964;SDS011;65903;51.452;7.198;2023-08-08T04:23:49;8.10;;;3.72;;
76964;SDS011;65903;51.452;7.198;2023-08-08T04:24:50;5.05;;;3.67;;
76964;SDS011;65903;51.452;7.198;2023-08-08T04:25:52;6.03;;;3.80;;
76964;SDS011;65903;51.452;7.198;2023-08-08T04:26:53;6.88;;;3.08;;
76964;SDS011;65903;51.452;7.198;2023-08-08T04:27:54;6.22;;;3.40;;
76964;SDS011;65903;51.452;7.198;2023-08-08T04:28:55;7.25;;;3.45;;
76964;SDS011;65903;51.452;7.198;2023-08-08T04:29:56;5.57;;;3.90;;
76964;SDS011;65903;51.452;7.198;2023-08-08T04:30:58;7.22;;;3.60;;
76964;SDS011;65903;51.452;7.198;2023-08-08T04:31:59;6.57;;;3.10;;
76964;SDS011;65903;51.452;7.198;2023-08-08T04:33:00;6.97;;;3.80;;
76964;SDS011;65903;51.452;7.198;2023-08-08T04:34:01;5.25;;;3.53;;
76964;SDS011;65903;51.452;7.198;2023-08-08T04:35:03;6.30;;;3.03;;
76964;SDS011;65903;51.452;7.198;2023-08-08T04:36:04;7.55;;;4.50;;
76964;SDS011;65903;51.452;7.198;2023-08-08T04:37:05;6.07;;;3.40;;
76964;SDS011;65903;51.452;7.198;2023-08-08T04:38:07;6.15;;;3.70;;
76964;SDS011;65903;51.452;7.198;2023-08-08T04:39:08;6.55;;;3.47;;
76964;SDS011;65903;51.452;7.198;2023-08-08T04:40:09;6.75;;;3.88;;
76964;SDS011;65903;51.452;7.198;2023-08-08T04:41:10;8.45;;;3.63;;
76964;SDS011;65903;51.452;7.198;2023-08-08T04:42:12;4.97;;;3.33;;
76964;SDS011;65903;51.452;7.198;2023-08-08T04:43:13;7.65;;;3.80;;
76964;SDS011;65903;51.452;7.198;2023-08-08T04:44:14;6.57;;;4.07;;
76964;SDS011;65903;51.452;7.198;2023-08-08T04:45:15;6.03;;;3.35;;
76964;SDS011;65903;51.452;7.198;2023-08-08T04:46:16;6.95;;;3.30;;
76964;SDS011;65903;51.452;7.198;2023-08-08T04:47:18;8.18;;;3.85;;
76964;SDS011;65903;51.452;7.198;2023-08-08T04:48:19;7.82;;;3.88;;
76964;SDS011;65903;51.452;7.198;2023-08-08T04:49:20;6.13;;;3.55;;
76964;SDS011;65903;51.452;7.198;2023-08-08T04:50:21;6.57;;;3.85;;
76964;SDS011;65903;51.452;7.198;2023-08-08T04:51:22;8.82;;;3.50;;
76964;SDS011;65903;51.452;7.198;2023-08-08T04:52:23;5.18;;;3.90;;
76964;SDS011;65903;51.452;7.198;2023-08-08T04:53:24;7.50;;;3.47;;
76964;SDS011;65903;51.452;7.198;2023-08-08T04:54:25;8.70;;;4.07;;
76964;SDS011;65903;51.452;7.198;2023-08-08T04:55:26;8.65;;;4.13;;
76964;SDS011;65903;51.452;7.198;2023-08-08T04:56:27;7.50;;;4.05;;
76964;SDS011;65903;51.452;7.198;2023-08-08T04:57:28;7.53;;;3.35;;
76964;SDS011;65903;51.452;7.198;2023-08-08T04:58:29;8.90;;;4.43;;
76964;SDS011;65903;51.452;7.198;2023-08-08T04:59:30;7.90;;;4.20;;
76964;SDS011;65903;51.452;7.198;2023-08-08T05:00:31;8.48;;;4.25;;
76964;SDS011;65903;51.452;7.198;2023-08-08T05:01:33;9.10;;;4.40;;
76964;SDS011;65903;51.452;7.198;2023-08-08T05:02:34;6.50;;;4.00;;
76964;SDS011;65903;51.452;7.198;2023-08-08T05:03:37;7.97;;;4.18;;
76964;SDS011;65903;51.452;7.198;2023-08-08T05:04:38;10.93;;;4.32;;
76964;SDS011;65903;51.452;7.198;2023-08-08T05:05:39;7.70;;;4.10;;
76964;SDS011;65903;51.452;7.198;2023-08-08T05:06:40;8.65;;;4.82;;
76964;SDS011;65903;51.452;7.198;2023-08-08T05:07:43;9.57;;;4.85;;
76964;SDS011;65903;51.452;7.198;2023-08-08T05:08:44;8.25;;;5.07;;
76964;SDS011;65903;51.452;7.198;2023-08-08T05:09:46;7.90;;;4.30;;
76964;SDS011;65903;51.452;7.198;2023-08-08T05:10:47;11.95;;;4.35;;
76964;SDS011;65903;51.452;7.198;2023-08-08T05:11:47;9.50;;;4.90;;
76964;SDS011;65903;51.452;7.198;2023-08-08T05:12:48;9.50;;;4.50;;
76964;SDS011;65903;51.452;7.198;2023-08-08T05:13:48;8.40;;;4.93;;
76964;SDS011;65903;51.452;7.198;2023-08-08T05:14:50;8.10;;;5.10;;
76964;SDS011;65903;51.452;7.198;2023-08-08T05:15:54;8.73;;;4.93;;
76964;SDS011;65903;51.452;7.198;2023-08-08T05:16:56;9.00;;;5.45;;
76964;SDS011;65903;51.452;7.198;2023-08-08T05:17:57;9.63;;;5.18;;
76964;SDS011;65903;51.452;7.198;2023-08-08T05:18:58;12.90;;;5.90;;
76964;SDS011;65903;51.452;7.198;2023-08-08T05:19:59;12.20;;;5.32;;
76964;SDS011;65903;51.452;7.198;2023-08-08T05:21:00;8.93;;;6.28;;
76964;SDS011;65903;51.452;7.198;2023-08-08T05:22:01;9.65;;;5.30;;
76964;SDS011;65903;51.452;7.198;2023-08-08T05:23:02;13.15;;;5.93;;
76964;SDS011;65903;51.452;7.198;2023-08-08T05:24:03;10.40;;;4.88;;
76964;SDS011;65903;51.452;7.198;2023-08-08T05:25:04;9.65;;;6.32;;
76964;SDS011;65903;51.452;7.198;2023-08-08T05:26:06;11.25;;;5.32;;
76964;SDS011;65903;51.452;7.198;2023-08-08T05:27:07;10.38;;;5.60;;
76964;SDS011;65903;51.452;7.198;2023-08-08T05:28:10;8.82;;;5.28;;
76964;SDS011;65903;51.452;7.198;2023-08-08T05:29:12;9.52;;;5.90;;
76964;SDS011;65903;51.452;7.198;2023-08-08T05:30:14;13.63;;;5.93;;
76964;SDS011;65903;51.452;7.198;2023-08-08T05:31:15;12.02;;;4.63;;
76964;SDS011;65903;51.452;7.198;2023-08-08T05:32:16;19.20;;;6.38;;
76964;SDS011;65903;51.452;7.198;2023-08-08T05:33:17;10.93;;;6.32;;
76964;SDS011;65903;51.452;7.198;2023-08-08T05:34:18;9.45;;;6.20;;
76964;SDS011;65903;51.452;7.198;2023-08-08T05:35:19;11.85;;;5.97;;
76964;SDS011;65903;51.452;7.198;2023-08-08T05:36:20;12.00;;;6.53;;
76964;SDS011;65903;51.452;7.198;2023-08-08T05:37:21;8.90;;;5.68;;
76964;SDS011;65903;51.452;7.198;2023-08-08T05:38:22;13.68;;;6.85;;
76964;SDS011;65903;51.452;7.198;2023-08-08T05:39:23;13.20;;;7.13;;
76964;SDS011;65903;51.452;7.198;2023-08-08T05:40:27;14.38;;;5.88;;
76964;SDS011;65903;51.452;7.198;2023-08-08T05:41:28;11.88;;;6.60;;
76964;SDS011;65903;51.452;7.198;2023-08-08T05:42:29;9.75;;;6.90;;
76964;SDS011;65903;51.452;7.198;2023-08-08T05:43:32;12.85;;;7.68;;
76964;SDS011;65903;51.452;7.198;2023-08-08T05:44:33;10.57;;;7.13;;
76964;SDS011;65903;51.452;7.198;2023-08-08T05:45:35;12.75;;;6.50;;
76964;SDS011;65903;51.452;7.198;2023-08-08T05:46:36;12.85;;;7.00;;
76964;SDS011;65903;51.452;7.198;2023-08-08T05:47:37;14.40;;;7.82;;
76964;SDS011;65903;51.452;7.198;2023-08-08T05:48:38;12.30;;;6.93;;
76964;SDS011;65903;51.452;7.198;2023-08-08T05:49:40;14.07;;;6.93;;
76964;SDS011;65903;51.452;7.198;2023-08-08T05:50:43;12.38;;;7.40;;
76964;SDS011;65903;51.452;7.198;2023-08-08T05:51:44;12.75;;;7.20;;
76964;SDS011;65903;51.452;7.198;2023-08-08T05:52:45;14.23;;;7.28;;
76964;SDS011;65903;51.452;7.198;2023-08-08T05:53:47;15.02;;;7.47;;
76964;SDS011;65903;51.452;7.198;2023-08-08T05:54:48;12.80;;;7.05;;
76964;SDS011;65903;51.452;7.198;2023-08-08T05:55:49;11.95;;;7.72;;
76964;SDS011;65903;51.452;7.198;2023-08-08T05:56:50;14.02;;;7.43;;
76964;SDS011;65903;51.452;7.198;2023-08-08T05:57:52;10.10;;;7.30;;
76964;SDS011;65903;51.452;7.198;2023-08-08T05:58:53;12.13;;;7.53;;
76964;SDS011;65903;51.452;7.198;2023-08-08T05:59:53;9.80;;;6.95;;
76964;SDS011;65903;51.452;7.198;2023-08-08T06:00:54;13.77;;;7.32;;
76964;SDS011;65903;51.452;7.198;2023-08-08T06:01:55;12.25;;;7.55;;
76964;SDS011;65903;51.452;7.198;2023-08-08T06:02:56;15.00;;;7.93;;
76964;SDS011;65903;51.452;7.198;2023-08-08T06:03:59;18.77;;;8.05;;
76964;SDS011;65903;51.452;7.198;2023-08-08T06:05:00;15.27;;;8.00;;
76964;SDS011;65903;51.452;7.198;2023-08-08T06:06:02;15.60;;;8.20;;
76964;SDS011;65903;51.452;7.198;2023-08-08T06:07:03;13.15;;;7.60;;
76964;SDS011;65903;51.452;7.198;2023-08-08T06:08:04;12.48;;;7.03;;
76964;SDS011;65903;51.452;7.198;2023-08-08T06:09:08;11.85;;;7.38;;
76964;SDS011;65903;51.452;7.198;2023-08-08T06:10:09;14.20;;;8.30;;
76964;SDS011;65903;51.452;7.198;2023-08-08T06:11:13;13.27;;;7.68;;
76964;SDS011;65903;51.452;7.198;2023-08-08T06:12:14;13.48;;;8.10;;
76964;SDS011;65903;51.452;7.198;2023-08-08T06:13:16;13.77;;;7.70;;
76964;SDS011;65903;51.452;7.198;2023-08-08T06:14:17;17.25;;;8.25;;
76964;SDS011;65903;51.452;7.198;2023-08-08T06:15:20;17.70;;;7.90;;